createdAt,value
2018-06-01T00:00:01.302Z,101862.71
2018-06-01T00:02:27.621Z,101859.94
2018-06-01T00:04:54.130Z,101860.84
2018-06-01T00:07:20.385Z,101852.41
2018-06-01T00:09:46.871Z,101853.70
2018-06-01T00:12:13.282Z,101838.59
2018-06-01T00:14:39.518Z,101840.19
2018-06-01T00:17:05.871Z,101842.06
2018-06-01T00:19:32.246Z,101840.63
2018-06-01T00:21:58.444Z,101829.55
2018-06-01T00:24:24.903Z,101828.98
2018-06-01T00:26:51.303Z,101828.70
2018-06-01T00:29:17.583Z,101825.78
2018-06-01T00:31:44.049Z,101832.64
2018-06-01T00:34:10.501Z,101819.34
2018-06-01T00:36:36.744Z,101814.55
2018-06-01T00:39:03.243Z,101815.92
2018-06-01T00:41:29.848Z,101811.55
2018-06-01T00:43:56.035Z,101812.37
2018-06-01T00:46:22.347Z,101806.16
2018-06-01T00:48:48.844Z,101804.02
2018-06-01T00:51:15.062Z,101794.64
2018-06-01T00:53:41.539Z,101785.45
2018-06-01T00:56:07.979Z,101784.08
2018-06-01T00:58:34.202Z,101780.94
2018-06-01T01:01:00.572Z,101771.55
2018-06-01T01:03:26.865Z,101775.59
2018-06-01T01:05:53.082Z,101776.06
2018-06-01T01:08:19.440Z,101777.46
2018-06-01T01:10:45.838Z,101768.36
2018-06-01T01:13:12.131Z,101767.09
2018-06-01T01:15:38.625Z,101767.20
2018-06-01T01:18:05.083Z,101763.27
2018-06-01T01:20:31.379Z,101753.06
2018-06-01T01:22:57.763Z,101755.22
2018-06-01T01:25:24.079Z,101748.48
2018-06-01T01:27:50.423Z,101740.06
2018-06-01T01:30:16.719Z,101746.18
2018-06-01T01:32:43.035Z,101729.71
2018-06-01T01:35:09.248Z,101733.30
2018-06-01T01:37:35.762Z,101723.03
2018-06-01T01:40:02.205Z,101724.38
2018-06-01T01:42:28.415Z,101729.63
2018-06-01T01:44:54.840Z,101735.34
2018-06-01T01:47:21.147Z,101713.97
2018-06-01T01:49:48.250Z,101717.27
2018-06-01T01:52:14.686Z,101713.38
2018-06-01T01:54:41.087Z,101716.03
2018-06-01T01:57:07.309Z,101713.88
2018-06-01T01:59:33.826Z,101712.63
2018-06-01T02:02:00.335Z,101706.42
2018-06-01T02:04:26.553Z,101703.19
2018-06-01T02:06:53.062Z,101693.24
2018-06-01T02:09:19.358Z,101695.64
2018-06-01T02:11:45.623Z,101700.64
2018-06-01T02:14:12.069Z,101694.91
2018-06-01T02:16:38.443Z,101694.00
2018-06-01T02:19:04.707Z,101689.89
2018-06-01T02:21:31.163Z,101689.92
2018-06-01T02:23:57.637Z,101697.87
2018-06-01T02:26:23.841Z,101681.67
2018-06-01T02:28:50.235Z,101681.88
2018-06-01T02:31:16.703Z,101678.93
2018-06-01T02:33:43.044Z,101685.14
2018-06-01T02:36:09.408Z,101682.87
2018-06-01T02:38:35.791Z,101688.29
2018-06-01T02:41:02.021Z,101674.97
2018-06-01T02:43:29.328Z,101670.42
2018-06-01T02:45:55.805Z,101670.80
2018-06-01T02:48:21.994Z,101670.80
2018-06-01T02:50:48.501Z,101665.84
2018-06-01T02:53:14.989Z,101668.88
2018-06-01T02:55:41.205Z,101664.79
2018-06-01T02:58:07.585Z,101657.22
2018-06-01T03:00:34.042Z,101657.70
2018-06-01T03:03:00.555Z,101653.63
2018-06-01T03:05:26.863Z,101653.91
2018-06-01T03:07:53.174Z,101651.23
2018-06-01T03:10:19.493Z,101650.80
2018-06-01T03:12:45.772Z,101648.98
2018-06-01T03:15:12.059Z,101649.42
2018-06-01T03:17:38.223Z,101650.36
2018-06-01T03:20:04.607Z,101645.25
2018-06-01T03:22:31.087Z,101652.45
2018-06-01T03:24:57.282Z,101652.55
2018-06-01T03:27:23.775Z,101652.58
2018-06-01T03:29:50.168Z,101653.04
2018-06-01T03:32:16.378Z,101642.89
2018-06-01T03:34:42.801Z,101653.10
2018-06-01T03:37:09.090Z,101654.37
2018-06-01T03:39:35.362Z,101650.80
2018-06-01T03:42:01.833Z,101644.00
2018-06-01T03:44:28.213Z,101645.78
2018-06-01T03:46:54.450Z,101651.77
2018-06-01T03:49:20.871Z,101657.74
2018-06-01T03:51:47.282Z,101653.53
2018-06-01T03:54:13.492Z,101657.53
2018-06-01T03:56:39.983Z,101653.07
2018-06-01T03:59:06.408Z,101632.95
2018-06-01T04:01:32.637Z,101651.14
2018-06-01T04:03:59.258Z,101653.80
2018-06-01T04:06:25.690Z,101653.70
2018-06-01T04:08:51.891Z,101646.55
2018-06-01T04:11:18.271Z,101648.68
2018-06-01T04:13:44.699Z,101639.58
2018-06-01T04:16:10.917Z,101626.41
2018-06-01T04:18:37.278Z,101629.72
2018-06-01T04:21:03.723Z,101626.56
2018-06-01T04:23:29.948Z,101618.08
2018-06-01T04:25:56.415Z,101626.91
2018-06-01T04:28:22.956Z,101625.86
2018-06-01T04:30:49.159Z,101625.05
2018-06-01T04:33:15.547Z,101622.33
2018-06-01T04:35:41.960Z,101630.22
2018-06-01T04:38:08.170Z,101625.52
2018-06-01T04:40:34.651Z,101621.23
2018-06-01T04:43:01.117Z,101615.98
2018-06-01T04:45:27.321Z,101617.79
2018-06-01T04:47:53.732Z,101615.97
2018-06-01T04:50:20.125Z,101609.99
2018-06-01T04:52:46.368Z,101619.72
2018-06-01T04:55:12.763Z,101616.55
2018-06-01T04:57:39.212Z,101610.48
2018-06-01T05:00:05.421Z,101603.98
2018-06-01T05:02:31.780Z,101605.98
2018-06-01T05:04:58.512Z,101596.84
2018-06-01T05:07:24.701Z,101594.36
2018-06-01T05:09:51.120Z,101594.99
2018-06-01T05:12:17.435Z,101598.48
2018-06-01T05:14:43.685Z,101594.64
2018-06-01T05:17:10.483Z,101600.94
2018-06-01T05:19:36.874Z,101599.52
2018-06-01T05:22:03.079Z,101598.41
2018-06-01T05:24:29.459Z,101593.13
2018-06-01T05:26:55.879Z,101589.17
2018-06-01T05:29:22.128Z,101581.28
2018-06-01T05:31:48.523Z,101578.65
2018-06-01T05:34:14.874Z,101569.91
2018-06-01T05:36:41.122Z,101560.06
2018-06-01T05:39:07.458Z,101567.44
2018-06-01T05:41:33.803Z,101564.66
2018-06-01T05:44:00.941Z,101567.80
2018-06-01T05:46:27.315Z,101564.22
2018-06-01T05:48:53.620Z,101569.48
2018-06-01T05:51:19.878Z,101569.78
2018-06-01T05:53:46.241Z,101552.12
2018-06-01T05:56:12.586Z,101540.75
2018-06-01T05:58:38.815Z,101542.20
2018-06-01T06:01:05.299Z,101534.39
2018-06-01T06:03:31.894Z,101537.85
2018-06-01T06:05:58.346Z,101550.36
2018-06-01T06:08:24.943Z,101544.64
2018-06-01T06:10:51.451Z,101544.67
2018-06-01T06:13:17.692Z,101551.81
2018-06-01T06:15:44.179Z,101543.85
2018-06-01T06:18:10.577Z,101552.66
2018-06-01T06:20:36.805Z,101556.71
2018-06-01T06:23:03.235Z,101558.91
2018-06-01T06:25:29.538Z,101551.92
2018-06-01T06:27:55.802Z,101553.01
2018-06-01T06:30:22.081Z,101546.05
2018-06-01T06:32:48.385Z,101538.66
2018-06-01T06:35:14.681Z,101538.81
2018-06-01T06:37:41.085Z,101546.17
2018-06-01T06:40:07.429Z,101545.48
2018-06-01T06:42:33.696Z,101542.93
2018-06-01T06:45:00.051Z,101540.14
2018-06-01T06:47:26.464Z,101551.32
2018-06-01T06:49:52.691Z,101555.96
2018-06-01T06:52:19.252Z,101567.45
2018-06-01T06:54:45.559Z,101576.94
2018-06-01T06:57:11.786Z,101567.28
2018-06-01T06:59:38.224Z,101567.53
2018-06-01T07:02:04.594Z,101561.64
2018-06-01T07:04:30.909Z,101565.26
2018-06-01T07:06:57.629Z,101561.23
2018-06-01T07:09:24.143Z,101559.39
2018-06-01T07:11:50.435Z,101553.53
2018-06-01T07:14:16.873Z,101555.32
2018-06-01T07:16:43.350Z,101555.60
2018-06-01T07:19:09.629Z,101556.16
2018-06-01T07:21:35.995Z,101554.47
2018-06-01T07:24:02.446Z,101558.77
2018-06-01T07:26:28.650Z,101555.72
2018-06-01T07:28:55.120Z,101558.19
2018-06-01T07:31:21.422Z,101553.57
2018-06-01T07:33:47.606Z,101560.22
2018-06-01T07:36:14.008Z,101557.53
2018-06-01T07:38:40.288Z,101556.47
2018-06-01T07:41:06.510Z,101560.34
2018-06-01T07:43:32.883Z,101547.48
2018-06-01T07:45:59.291Z,101548.98
2018-06-01T07:48:25.532Z,101542.77
2018-06-01T07:50:52.013Z,101545.48
2018-06-01T07:53:18.403Z,101542.85
2018-06-01T07:55:44.639Z,101547.41
2018-06-01T07:58:11.084Z,101540.62
2018-06-01T08:00:37.439Z,101540.55
2018-06-01T08:03:03.713Z,101542.42
2018-06-01T08:05:30.141Z,101548.48
2018-06-01T08:07:56.809Z,101542.44
2018-06-01T08:10:23.035Z,101542.44
2018-06-01T08:12:49.391Z,101541.57
2018-06-01T08:15:15.875Z,101542.14
2018-06-01T08:17:42.117Z,101537.69
2018-06-01T08:20:08.505Z,101543.06
2018-06-01T08:22:34.869Z,101542.00
2018-06-01T08:25:01.109Z,101523.45
2018-06-01T08:27:27.489Z,101529.73
2018-06-01T08:29:53.907Z,101532.66
2018-06-01T08:32:20.170Z,101538.50
2018-06-01T08:34:46.586Z,101535.92
2018-06-01T08:37:13.083Z,101539.30
2018-06-01T08:39:39.302Z,101535.28
2018-06-01T08:42:05.741Z,101530.49
2018-06-01T08:44:32.209Z,101523.91
2018-06-01T08:46:58.414Z,101529.93
2018-06-01T08:49:24.774Z,101514.37
2018-06-01T08:51:51.164Z,101514.28
2018-06-01T08:54:17.432Z,101507.34
2018-06-01T08:56:43.921Z,101505.98
2018-06-01T08:59:10.371Z,101493.61
2018-06-01T09:01:36.605Z,101504.86
2018-06-01T09:04:03.091Z,101490.86
2018-06-01T09:06:29.555Z,101487.78
2018-06-01T09:08:55.854Z,101481.89
2018-06-01T09:11:22.261Z,101479.98
2018-06-01T09:13:48.736Z,101466.94
2018-06-01T09:16:14.995Z,101475.09
2018-06-01T09:18:41.462Z,101469.22
2018-06-01T09:21:07.957Z,101463.08
2018-06-01T09:23:34.175Z,101467.67
2018-06-01T09:26:00.589Z,101453.31
2018-06-01T09:31:19.075Z,101439.30
2018-06-01T09:33:45.302Z,101441.86
2018-06-01T09:36:11.516Z,101433.41
2018-06-01T09:38:38.014Z,101436.44
2018-06-01T09:41:04.250Z,101428.70
2018-06-01T09:43:30.518Z,101429.62
2018-06-01T09:45:57.023Z,101433.83
2018-06-01T09:48:23.194Z,101426.30
2018-06-01T09:50:49.449Z,101414.34
2018-06-01T09:53:15.887Z,101434.39
2018-06-01T09:55:42.133Z,101431.38
2018-06-01T09:58:08.308Z,101421.95
2018-06-01T10:00:40.504Z,101414.99
2018-06-01T10:03:06.884Z,101411.84
2018-06-01T10:05:33.088Z,101418.84
2018-06-01T10:07:59.501Z,101412.02
2018-06-01T10:10:31.910Z,101407.94
2018-06-01T10:12:58.306Z,101411.77
2018-06-01T10:15:24.680Z,101415.33
2018-06-01T10:17:50.912Z,101412.94
2018-06-01T10:20:17.947Z,101414.52
2018-06-01T10:22:44.420Z,101405.47
2018-06-01T10:25:10.642Z,101398.03
2018-06-01T10:27:37.079Z,101402.13
2018-06-01T10:30:03.487Z,101399.48
2018-06-01T10:32:29.706Z,101399.05
2018-06-01T10:34:56.075Z,101396.02
2018-06-01T10:37:22.574Z,101391.56
2018-06-01T10:39:48.848Z,101391.91
2018-06-01T10:42:15.319Z,101385.67
2018-06-01T10:44:41.739Z,101393.97
2018-06-01T10:47:07.957Z,101390.73
2018-06-01T10:49:34.259Z,101388.05
2018-06-01T10:52:00.753Z,101380.64
2018-06-01T10:54:27.029Z,101389.19
2018-06-01T10:56:53.473Z,101387.20
2018-06-01T10:59:19.785Z,101384.08
2018-06-01T11:01:46.029Z,101387.41
2018-06-01T11:04:12.508Z,101383.31
2018-06-01T11:06:38.980Z,101380.47
2018-06-01T11:09:05.250Z,101374.79
2018-06-01T11:11:31.737Z,101375.93
2018-06-01T11:13:58.230Z,101372.00
2018-06-01T11:16:24.488Z,101373.00
2018-06-01T11:18:50.756Z,101368.25
2018-06-01T11:21:17.288Z,101369.95
2018-06-01T11:23:43.527Z,101364.00
2018-06-01T11:26:09.934Z,101365.09
2018-06-01T11:28:36.360Z,101362.87
2018-06-01T11:31:02.566Z,101367.05
2018-06-01T11:33:28.963Z,101355.02
2018-06-01T11:35:55.355Z,101360.25
2018-06-01T11:38:21.572Z,101361.02
2018-06-01T11:40:48.045Z,101360.08
2018-06-01T11:43:14.420Z,101350.22
2018-06-01T11:45:40.664Z,101356.02
2018-06-01T11:48:07.019Z,101356.73
2018-06-01T11:50:33.424Z,101353.43
2018-06-01T11:52:59.627Z,101355.48
2018-06-01T11:55:25.996Z,101352.29
2018-06-01T11:57:52.446Z,101344.16
2018-06-01T12:00:18.646Z,101344.61
2018-06-01T12:02:45.250Z,101343.95
2018-06-01T12:05:11.771Z,101337.41
2018-06-01T12:07:37.975Z,101336.81
2018-06-01T12:10:04.321Z,101331.70
2018-06-01T12:12:30.923Z,101337.14
2018-06-01T12:14:57.128Z,101333.92
2018-06-01T12:17:23.451Z,101342.53
2018-06-01T12:19:50.003Z,101333.92
2018-06-01T12:22:16.196Z,101338.78
2018-06-01T12:24:42.391Z,101335.89
2018-06-01T12:27:08.810Z,101338.13
2018-06-01T12:29:35.033Z,101332.19
2018-06-01T12:32:01.518Z,101325.69
2018-06-01T12:34:27.854Z,101329.63
2018-06-01T12:36:54.124Z,101327.81
2018-06-01T12:39:20.426Z,101330.08
2018-06-01T12:41:46.947Z,101324.75
2018-06-01T12:44:13.170Z,101324.42
2018-06-01T12:46:39.653Z,101318.47
2018-06-01T12:49:06.126Z,101318.89
2018-06-01T12:51:32.335Z,101315.66
2018-06-01T12:53:58.613Z,101307.60
2018-06-01T12:56:25.049Z,101307.67
2018-06-01T12:58:51.329Z,101302.61
2018-06-01T13:01:17.694Z,101294.33
2018-06-01T13:03:44.072Z,101293.83
2018-06-01T13:06:10.332Z,101287.25
2018-06-01T13:08:36.693Z,101283.56
2018-06-01T13:11:03.152Z,101276.12
2018-06-01T13:13:29.546Z,101281.67
2018-06-01T13:15:55.860Z,101277.84
2018-06-01T13:18:22.263Z,101277.48
2018-06-01T13:20:48.553Z,101283.69
2018-06-01T13:23:14.958Z,101275.08
2018-06-01T13:25:41.361Z,101269.34
2018-06-01T13:28:07.571Z,101271.27
2018-06-01T13:30:34.047Z,101268.84
2018-06-01T13:33:00.381Z,101269.72
2018-06-01T13:35:26.671Z,101276.52
2018-06-01T13:37:53.069Z,101304.20
2018-06-01T13:40:19.450Z,101312.19
2018-06-01T13:42:45.713Z,101313.06
2018-06-01T13:45:12.035Z,101325.27
2018-06-01T13:47:38.320Z,101334.70
2018-06-01T13:50:04.575Z,101337.09
2018-06-01T13:52:31.086Z,101341.69
2018-06-01T13:54:57.333Z,101336.17
2018-06-01T13:57:23.552Z,101337.69
2018-06-01T13:59:49.813Z,101346.83
2018-06-01T14:02:16.164Z,101335.54
2018-06-01T14:04:42.417Z,101331.67
2018-06-01T14:07:08.646Z,101334.91
2018-06-01T14:09:34.983Z,101329.76
2018-06-01T14:12:01.223Z,101327.80
2018-06-01T14:14:27.648Z,101329.58
2018-06-01T14:16:54.372Z,101325.95
2018-06-01T14:19:20.743Z,101327.65
2018-06-01T14:21:47.475Z,101316.73
2018-06-01T14:24:14.275Z,101308.02
2018-06-01T14:26:40.622Z,101304.43
2018-06-01T14:29:07.038Z,101312.45
2018-06-01T14:31:33.356Z,101296.19
2018-06-01T14:33:59.545Z,101295.25
2018-06-01T14:36:25.963Z,101290.83
2018-06-01T14:38:52.520Z,101287.33
2018-06-01T14:41:18.791Z,101278.55
2018-06-01T14:43:45.287Z,101289.82
2018-06-01T14:46:11.734Z,101279.41
2018-06-01T14:48:37.960Z,101280.53
2018-06-01T14:51:04.442Z,101278.50
2018-06-01T14:53:30.810Z,101277.47
2018-06-01T14:55:57.030Z,101280.30
2018-06-01T14:58:23.320Z,101275.00
2018-06-01T15:00:49.862Z,101275.67
2018-06-01T15:03:16.092Z,101276.70
2018-06-01T15:05:42.535Z,101263.23
2018-06-01T15:08:08.939Z,101263.50
2018-06-01T15:10:35.211Z,101262.38
2018-06-01T15:13:01.627Z,101266.70
2018-06-01T15:15:28.359Z,101266.38
2018-06-01T15:17:54.591Z,101266.97
2018-06-01T15:20:21.055Z,101264.48
2018-06-01T15:22:47.439Z,101257.39
2018-06-01T15:25:13.648Z,101262.42
2018-06-01T15:27:40.204Z,101259.36
2018-06-01T15:30:06.625Z,101253.14
2018-06-01T15:32:32.848Z,101253.05
2018-06-01T15:34:59.352Z,101252.02
2018-06-01T15:37:25.703Z,101246.41
2018-06-01T15:39:51.920Z,101247.46
2018-06-01T15:42:18.327Z,101239.27
2018-06-01T15:44:44.641Z,101241.00
2018-06-01T15:47:10.891Z,101251.94
2018-06-01T15:49:37.328Z,101241.16
2018-06-01T15:52:03.791Z,101245.64
2018-06-01T15:54:30.015Z,101240.84
2018-06-01T15:56:56.401Z,101236.84
2018-06-01T15:59:22.759Z,101234.46
2018-06-01T16:01:49.028Z,101237.80
2018-06-01T16:04:15.498Z,101240.82
2018-06-01T16:06:41.974Z,101238.09
2018-06-01T16:09:08.197Z,101235.09
2018-06-01T16:11:34.662Z,101234.44
2018-06-01T16:14:01.066Z,101244.56
2018-06-01T16:16:27.510Z,101267.11
2018-06-01T16:18:53.893Z,101261.41
2018-06-01T16:21:20.285Z,101267.67
2018-06-01T16:23:46.511Z,101278.97
2018-06-01T16:26:12.759Z,101283.67
2018-06-01T16:28:39.187Z,101284.34
2018-06-01T16:31:06.366Z,101287.80
2018-06-01T16:33:32.773Z,101274.58
2018-06-01T16:35:59.147Z,101281.02
2018-06-01T16:38:25.362Z,101267.98
2018-06-01T16:40:51.677Z,101264.89
2018-06-01T16:43:18.038Z,101258.53
2018-06-01T16:45:44.269Z,101253.31
2018-06-01T16:48:10.666Z,101251.95
2018-06-01T16:50:37.009Z,101255.00
2018-06-01T16:53:03.269Z,101256.05
2018-06-01T16:55:29.656Z,101259.59
2018-06-01T16:57:56.046Z,101266.13
2018-06-01T17:00:22.262Z,101264.83
2018-06-01T17:02:48.804Z,101269.69
2018-06-01T17:05:15.162Z,101260.53
2018-06-01T17:07:41.378Z,101255.34
2018-06-01T17:10:07.840Z,101257.88
2018-06-01T17:12:34.239Z,101257.04
2018-06-01T17:15:00.471Z,101257.56
2018-06-01T17:17:26.870Z,101253.00
2018-06-01T17:19:53.297Z,101248.77
2018-06-01T17:22:19.548Z,101252.64
2018-06-01T17:24:46.148Z,101249.69
2018-06-01T17:27:12.542Z,101244.98
2018-06-01T17:29:38.757Z,101245.73
2018-06-01T17:32:08.062Z,101239.75
2018-06-01T17:34:34.350Z,101243.61
2018-06-01T17:37:00.546Z,101244.56
2018-06-01T17:39:26.890Z,101240.09
2018-06-01T17:41:53.256Z,101233.36
2018-06-01T17:44:19.568Z,101239.23
2018-06-01T17:46:45.935Z,101233.30
2018-06-01T17:49:12.390Z,101235.97
2018-06-01T17:51:38.578Z,101242.12
2018-06-01T17:54:05.166Z,101237.88
2018-06-01T17:56:31.466Z,101232.43
2018-06-01T17:58:57.683Z,101227.23
2018-06-01T18:01:24.014Z,101222.80
2018-06-01T18:03:50.332Z,101221.02
2018-06-01T18:06:16.543Z,101219.75
2018-06-01T18:08:42.955Z,101215.07
2018-06-01T18:11:09.379Z,101216.86
2018-06-01T18:13:35.565Z,101220.68
2018-06-01T18:16:02.164Z,101223.30
2018-06-01T18:18:28.838Z,101221.27
2018-06-01T18:20:55.058Z,101226.17
2018-06-01T18:23:21.424Z,101217.19
2018-06-01T18:25:47.773Z,101216.79
2018-06-01T18:28:14.067Z,101221.05
2018-06-01T18:30:40.424Z,101221.80
2018-06-01T18:33:06.779Z,101212.91
2018-06-01T18:35:32.997Z,101222.77
2018-06-01T18:37:59.358Z,101222.50
2018-06-01T18:40:25.755Z,101219.01
2018-06-01T18:42:51.991Z,101221.02
2018-06-01T18:45:18.386Z,101208.17
2018-06-01T18:47:44.735Z,101219.59
2018-06-01T18:50:10.925Z,101222.48
2018-06-01T18:52:37.255Z,101221.44
2018-06-01T18:55:03.719Z,101215.12
2018-06-01T18:57:29.923Z,101215.56
2018-06-01T18:59:56.290Z,101223.73
2018-06-01T19:02:22.787Z,101218.19
2018-06-01T19:04:48.971Z,101225.58
2018-06-01T19:07:15.407Z,101224.88
2018-06-01T19:09:41.763Z,101217.27
2018-06-01T19:12:07.973Z,101218.02
2018-06-01T19:14:34.387Z,101220.45
2018-06-01T19:17:00.684Z,101218.10
2018-06-01T19:19:27.098Z,101222.98
2018-06-01T19:21:53.424Z,101226.42
2018-06-01T19:24:19.993Z,101229.70
2018-06-01T19:26:46.194Z,101231.81
2018-06-01T19:29:12.533Z,101229.41
2018-06-01T19:31:38.933Z,101233.80
2018-06-01T19:34:05.150Z,101235.47
2018-06-01T19:36:31.532Z,101234.42
2018-06-01T19:38:57.926Z,101236.00
2018-06-01T19:41:24.161Z,101236.75
2018-06-01T19:43:50.534Z,101230.42
2018-06-01T19:46:16.911Z,101231.16
2018-06-01T19:48:43.192Z,101235.30
2018-06-01T19:51:09.479Z,101233.66
2018-06-01T19:53:35.844Z,101235.77
2018-06-01T19:56:02.056Z,101232.34
2018-06-01T19:58:28.543Z,101230.45
2018-06-01T20:00:55.021Z,101235.83
2018-06-01T20:03:21.231Z,101235.52
2018-06-01T20:05:47.682Z,101241.53
2018-06-01T20:08:14.164Z,101240.84
2018-06-01T20:10:40.393Z,101236.55
2018-06-01T20:13:06.823Z,101242.65
2018-06-01T20:15:33.246Z,101242.98
2018-06-01T20:17:59.497Z,101243.24
2018-06-01T20:20:26.110Z,101245.41
2018-06-01T20:22:52.465Z,101243.45
2018-06-01T20:25:18.710Z,101247.78
2018-06-01T20:27:45.141Z,101252.16
2018-06-01T20:30:11.454Z,101248.83
2018-06-01T20:32:37.707Z,101248.18
2018-06-01T20:35:04.169Z,101253.33
2018-06-01T20:37:30.781Z,101254.27
2018-06-01T20:39:56.979Z,101253.22
2018-06-01T20:42:23.341Z,101249.39
2018-06-01T20:44:49.754Z,101255.54
2018-06-01T20:47:16.012Z,101249.48
2018-06-01T20:49:42.352Z,101251.56
2018-06-01T20:52:08.750Z,101255.43
2018-06-01T20:54:34.972Z,101249.86
2018-06-01T20:57:01.431Z,101255.88
2018-06-01T20:59:27.762Z,101257.02
2018-06-01T21:01:53.981Z,101257.30
2018-06-01T21:04:20.497Z,101262.55
2018-06-01T21:06:46.913Z,101261.47
2018-06-01T21:09:13.146Z,101259.98
2018-06-01T21:11:39.577Z,101261.61
2018-06-01T21:14:06.050Z,101262.65
2018-06-01T21:16:32.317Z,101261.13
2018-06-01T21:18:58.944Z,101261.33
2018-06-01T21:21:25.357Z,101259.74
2018-06-01T21:23:51.573Z,101252.19
2018-06-01T21:26:17.883Z,101251.52
2018-06-01T21:28:44.393Z,101254.94
2018-06-01T21:31:10.610Z,101253.27
2018-06-01T21:33:36.937Z,101255.51
2018-06-01T21:36:03.374Z,101251.99
2018-06-01T21:38:29.604Z,101254.81
2018-06-01T21:40:55.948Z,101253.95
2018-06-01T21:43:22.306Z,101254.05
2018-06-01T21:45:48.623Z,101253.59
2018-06-01T21:48:14.975Z,101257.27
2018-06-01T21:50:41.305Z,101254.22
2018-06-01T21:53:07.564Z,101254.27
2018-06-01T21:55:34.195Z,101252.53
2018-06-01T21:58:00.614Z,101249.36
2018-06-01T22:00:26.834Z,101250.64
2018-06-01T22:02:53.143Z,101256.87
2018-06-01T22:05:19.527Z,101251.91
2018-06-01T22:07:45.779Z,101249.04
2018-06-01T22:10:12.034Z,101247.60
2018-06-01T22:12:38.348Z,101242.85
2018-06-01T22:15:04.550Z,101245.20
2018-06-01T22:17:30.985Z,101250.73
2018-06-01T22:19:57.380Z,101245.94
2018-06-01T22:22:23.571Z,101246.59
2018-06-01T22:24:50.020Z,101241.36
2018-06-01T22:27:16.432Z,101235.30
2018-06-01T22:29:42.707Z,101246.05
2018-06-01T22:32:09.095Z,101240.30
2018-06-01T22:34:35.542Z,101244.55
2018-06-01T22:37:01.834Z,101246.64
2018-06-01T22:39:28.115Z,101247.59
2018-06-01T22:41:54.498Z,101257.42
2018-06-01T22:44:20.709Z,101261.34
2018-06-01T22:46:46.999Z,101258.10
2018-06-01T22:49:13.455Z,101244.82
2018-06-01T22:51:39.679Z,101248.69
2018-06-01T22:54:06.082Z,101250.90
2018-06-01T22:56:32.555Z,101251.00
2018-06-01T22:58:58.767Z,101257.73
2018-06-01T23:01:25.246Z,101253.19
2018-06-01T23:03:51.690Z,101254.08
2018-06-01T23:06:17.917Z,101249.97
2018-06-01T23:08:44.307Z,101249.47
2018-06-01T23:11:10.673Z,101258.80
2018-06-01T23:13:36.905Z,101256.35
2018-06-01T23:16:03.423Z,101255.06
2018-06-01T23:18:29.825Z,101254.00
2018-06-01T23:20:56.148Z,101246.91
2018-06-01T23:23:22.549Z,101251.92
2018-06-01T23:25:49.071Z,101256.72
2018-06-01T23:28:15.280Z,101254.35
2018-06-01T23:30:41.800Z,101261.85
2018-06-01T23:33:08.231Z,101260.86
2018-06-01T23:35:34.444Z,101260.23
2018-06-01T23:38:00.839Z,101259.12
2018-06-01T23:40:27.215Z,101262.06
2018-06-01T23:42:53.433Z,101256.44
2018-06-01T23:45:20.039Z,101249.59
2018-06-01T23:47:46.428Z,101255.34
2018-06-01T23:50:12.646Z,101254.23
2018-06-01T23:52:39.025Z,101245.95
2018-06-01T23:55:05.372Z,101243.54
2018-06-01T23:57:31.573Z,101248.25
2018-06-01T23:59:57.947Z,101252.17
